Albany, New York
Traffic Map
Current Weather Conditions
Albany, New York
Broken Clouds
Broken Clouds

Feels Like: 1°
Wind Chill: Ceiling: 20000
Heat Index: Visibility: 10mi
Dew Point: -1° Wind: 10mph
Humidity: 70% Direction: 360° (N)
Pressure: 29.97in Gusts: 0mph
Raw Report DataKALB 011251Z 36009KT 10SM SCT065 BKN200 04/M01 A2997 RMK AO2 SLP151 T00441006
Traffic Incident Summary
Active as of:
Severity:
Category:
InformationThere was an issue retrieving the traffic information for this location. Please try a different location or try again shortly.
Advertisements
Track Severe Weather on mobile